sensor_id;sensor_type;location;lat;lon;timestamp;P1;durP1;ratioP1;P2;durP2;ratioP2
43152;SDS011;28756;49.064;9.290;2023-04-28T00:00:45;4.20;;;2.03;;
43152;SDS011;28756;49.064;9.290;2023-04-28T00:03:11;2.42;;;1.63;;
43152;SDS011;28756;49.064;9.290;2023-04-28T00:05:38;2.40;;;1.80;;
43152;SDS011;28756;49.064;9.290;2023-04-28T00:08:03;2.10;;;1.70;;
43152;SDS011;28756;49.064;9.290;2023-04-28T00:10:29;3.13;;;1.52;;
43152;SDS011;28756;49.064;9.290;2023-04-28T00:12:55;2.90;;;2.30;;
43152;SDS011;28756;49.064;9.290;2023-04-28T00:15:21;2.55;;;1.88;;
43152;SDS011;28756;49.064;9.290;2023-04-28T00:17:47;3.05;;;2.08;;
43152;SDS011;28756;49.064;9.290;2023-04-28T00:20:13;2.55;;;1.80;;
43152;SDS011;28756;49.064;9.290;2023-04-28T00:22:39;2.50;;;1.75;;
43152;SDS011;28756;49.064;9.290;2023-04-28T00:25:05;3.35;;;2.10;;
43152;SDS011;28756;49.064;9.290;2023-04-28T00:27:32;2.25;;;2.03;;
43152;SDS011;28756;49.064;9.290;2023-04-28T00:29:58;2.75;;;1.70;;
43152;SDS011;28756;49.064;9.290;2023-04-28T00:32:24;2.20;;;1.70;;
43152;SDS011;28756;49.064;9.290;2023-04-28T00:34:50;2.22;;;1.80;;
43152;SDS011;28756;49.064;9.290;2023-04-28T00:37:17;2.20;;;1.90;;
43152;SDS011;28756;49.064;9.290;2023-04-28T00:39:43;2.35;;;1.90;;
43152;SDS011;28756;49.064;9.290;2023-04-28T00:42:11;2.63;;;2.00;;
43152;SDS011;28756;49.064;9.290;2023-04-28T00:44:39;2.05;;;1.85;;
43152;SDS011;28756;49.064;9.290;2023-04-28T00:47:06;1.45;;;1.35;;
43152;SDS011;28756;49.064;9.290;2023-04-28T00:49:33;2.35;;;1.73;;
43152;SDS011;28756;49.064;9.290;2023-04-28T00:52:02;1.95;;;1.70;;
43152;SDS011;28756;49.064;9.290;2023-04-28T00:54:31;4.18;;;2.17;;
43152;SDS011;28756;49.064;9.290;2023-04-28T00:56:58;4.28;;;2.58;;
43152;SDS011;28756;49.064;9.290;2023-04-28T00:59:27;3.80;;;2.50;;
43152;SDS011;28756;49.064;9.290;2023-04-28T01:01:54;3.63;;;2.10;;
43152;SDS011;28756;49.064;9.290;2023-04-28T01:04:20;3.30;;;2.05;;
43152;SDS011;28756;49.064;9.290;2023-04-28T01:06:51;3.22;;;2.00;;
43152;SDS011;28756;49.064;9.290;2023-04-28T01:09:19;3.55;;;2.35;;
43152;SDS011;28756;49.064;9.290;2023-04-28T01:11:46;16.50;;;2.85;;
43152;SDS011;28756;49.064;9.290;2023-04-28T01:14:11;4.95;;;3.08;;
43152;SDS011;28756;49.064;9.290;2023-04-28T01:16:37;2.45;;;1.90;;
43152;SDS011;28756;49.064;9.290;2023-04-28T01:19:07;2.28;;;2.00;;
43152;SDS011;28756;49.064;9.290;2023-04-28T01:21:41;4.93;;;2.40;;
43152;SDS011;28756;49.064;9.290;2023-04-28T01:24:07;2.65;;;2.00;;
43152;SDS011;28756;49.064;9.290;2023-04-28T01:26:32;2.13;;;1.63;;
43152;SDS011;28756;49.064;9.290;2023-04-28T01:28:58;3.83;;;2.00;;
43152;SDS011;28756;49.064;9.290;2023-04-28T01:31:24;5.18;;;2.30;;
43152;SDS011;28756;49.064;9.290;2023-04-28T01:33:50;2.33;;;2.10;;
43152;SDS011;28756;49.064;9.290;2023-04-28T01:36:16;5.60;;;2.53;;
43152;SDS011;28756;49.064;9.290;2023-04-28T01:38:42;2.38;;;2.03;;
43152;SDS011;28756;49.064;9.290;2023-04-28T01:41:07;2.58;;;1.95;;
43152;SDS011;28756;49.064;9.290;2023-04-28T01:43:33;3.10;;;1.88;;
43152;SDS011;28756;49.064;9.290;2023-04-28T01:45:59;3.78;;;1.70;;
43152;SDS011;28756;49.064;9.290;2023-04-28T01:48:24;2.15;;;1.70;;
43152;SDS011;28756;49.064;9.290;2023-04-28T01:50:50;2.00;;;1.60;;
43152;SDS011;28756;49.064;9.290;2023-04-28T01:53:16;1.70;;;1.50;;
43152;SDS011;28756;49.064;9.290;2023-04-28T01:55:44;1.73;;;1.33;;
43152;SDS011;28756;49.064;9.290;2023-04-28T01:58:11;2.10;;;1.92;;
43152;SDS011;28756;49.064;9.290;2023-04-28T02:00:37;2.72;;;1.70;;
43152;SDS011;28756;49.064;9.290;2023-04-28T02:03:03;1.83;;;1.58;;
43152;SDS011;28756;49.064;9.290;2023-04-28T02:05:29;2.30;;;1.73;;
43152;SDS011;28756;49.064;9.290;2023-04-28T02:07:55;2.70;;;1.98;;
43152;SDS011;28756;49.064;9.290;2023-04-28T02:10:21;3.53;;;1.77;;
43152;SDS011;28756;49.064;9.290;2023-04-28T02:12:46;3.22;;;1.73;;
43152;SDS011;28756;49.064;9.290;2023-04-28T02:15:12;2.95;;;1.77;;
43152;SDS011;28756;49.064;9.290;2023-04-28T02:17:38;2.20;;;1.58;;
43152;SDS011;28756;49.064;9.290;2023-04-28T02:20:04;2.03;;;1.60;;
43152;SDS011;28756;49.064;9.290;2023-04-28T02:22:30;2.03;;;1.83;;
43152;SDS011;28756;49.064;9.290;2023-04-28T02:24:56;1.80;;;1.65;;
43152;SDS011;28756;49.064;9.290;2023-04-28T02:27:22;2.10;;;1.90;;
43152;SDS011;28756;49.064;9.290;2023-04-28T02:29:47;2.33;;;1.70;;
43152;SDS011;28756;49.064;9.290;2023-04-28T02:32:13;2.08;;;1.85;;
43152;SDS011;28756;49.064;9.290;2023-04-28T02:34:39;1.63;;;1.52;;
43152;SDS011;28756;49.064;9.290;2023-04-28T02:37:05;2.03;;;1.77;;
43152;SDS011;28756;49.064;9.290;2023-04-28T02:39:31;2.67;;;1.90;;
43152;SDS011;28756;49.064;9.290;2023-04-28T02:41:57;2.28;;;2.00;;
43152;SDS011;28756;49.064;9.290;2023-04-28T02:44:23;2.38;;;1.80;;
43152;SDS011;28756;49.064;9.290;2023-04-28T02:46:49;3.15;;;1.80;;
43152;SDS011;28756;49.064;9.290;2023-04-28T02:49:15;2.03;;;1.80;;
43152;SDS011;28756;49.064;9.290;2023-04-28T02:51:40;2.35;;;2.00;;
43152;SDS011;28756;49.064;9.290;2023-04-28T02:54:06;2.22;;;1.70;;
43152;SDS011;28756;49.064;9.290;2023-04-28T02:56:33;2.10;;;1.80;;
43152;SDS011;28756;49.064;9.290;2023-04-28T02:58:59;2.00;;;1.55;;
43152;SDS011;28756;49.064;9.290;2023-04-28T03:01:25;1.73;;;1.58;;
43152;SDS011;28756;49.064;9.290;2023-04-28T03:03:51;1.98;;;1.42;;
43152;SDS011;28756;49.064;9.290;2023-04-28T03:06:17;3.13;;;2.40;;
43152;SDS011;28756;49.064;9.290;2023-04-28T03:08:42;2.15;;;1.80;;
43152;SDS011;28756;49.064;9.290;2023-04-28T03:11:08;3.10;;;1.92;;
43152;SDS011;28756;49.064;9.290;2023-04-28T03:13:35;2.00;;;1.80;;
43152;SDS011;28756;49.064;9.290;2023-04-28T03:16:01;2.13;;;1.92;;
43152;SDS011;28756;49.064;9.290;2023-04-28T03:18:27;3.17;;;2.50;;
43152;SDS011;28756;49.064;9.290;2023-04-28T03:20:52;2.45;;;1.90;;
43152;SDS011;28756;49.064;9.290;2023-04-28T03:23:18;2.67;;;1.90;;
43152;SDS011;28756;49.064;9.290;2023-04-28T03:25:44;2.40;;;1.80;;
43152;SDS011;28756;49.064;9.290;2023-04-28T03:28:10;2.80;;;2.17;;
43152;SDS011;28756;49.064;9.290;2023-04-28T03:30:35;3.00;;;2.38;;
43152;SDS011;28756;49.064;9.290;2023-04-28T03:33:01;2.78;;;2.25;;
43152;SDS011;28756;49.064;9.290;2023-04-28T03:35:27;3.70;;;3.35;;
43152;SDS011;28756;49.064;9.290;2023-04-28T03:37:53;3.72;;;2.90;;
43152;SDS011;28756;49.064;9.290;2023-04-28T03:40:18;3.50;;;3.20;;
43152;SDS011;28756;49.064;9.290;2023-04-28T03:42:44;4.93;;;3.28;;
43152;SDS011;28756;49.064;9.290;2023-04-28T03:45:10;3.20;;;2.80;;
43152;SDS011;28756;49.064;9.290;2023-04-28T03:47:36;3.35;;;2.60;;
43152;SDS011;28756;49.064;9.290;2023-04-28T03:50:02;4.15;;;2.60;;
43152;SDS011;28756;49.064;9.290;2023-04-28T03:52:28;3.05;;;2.42;;
43152;SDS011;28756;49.064;9.290;2023-04-28T03:54:54;2.78;;;2.22;;
43152;SDS011;28756;49.064;9.290;2023-04-28T03:57:20;3.13;;;2.17;;
43152;SDS011;28756;49.064;9.290;2023-04-28T03:59:46;2.33;;;2.13;;
43152;SDS011;28756;49.064;9.290;2023-04-28T04:02:12;2.42;;;1.80;;
43152;SDS011;28756;49.064;9.290;2023-04-28T04:04:37;2.22;;;1.98;;
43152;SDS011;28756;49.064;9.290;2023-04-28T04:07:03;1.67;;;1.55;;
43152;SDS011;28756;49.064;9.290;2023-04-28T04:09:29;5.40;;;2.03;;
43152;SDS011;28756;49.064;9.290;2023-04-28T04:11:55;2.53;;;1.80;;
43152;SDS011;28756;49.064;9.290;2023-04-28T04:14:21;2.13;;;1.88;;
43152;SDS011;28756;49.064;9.290;2023-04-28T04:16:46;3.30;;;2.05;;
43152;SDS011;28756;49.064;9.290;2023-04-28T04:19:12;4.13;;;2.90;;
43152;SDS011;28756;49.064;9.290;2023-04-28T04:21:38;2.33;;;1.90;;
43152;SDS011;28756;49.064;9.290;2023-04-28T04:24:04;2.47;;;1.98;;
43152;SDS011;28756;49.064;9.290;2023-04-28T04:26:30;2.88;;;2.25;;
43152;SDS011;28756;49.064;9.290;2023-04-28T04:28:56;2.88;;;2.50;;
43152;SDS011;28756;49.064;9.290;2023-04-28T04:31:21;2.30;;;2.10;;
43152;SDS011;28756;49.064;9.290;2023-04-28T04:33:47;1.63;;;1.50;;
43152;SDS011;28756;49.064;9.290;2023-04-28T04:36:13;2.53;;;2.20;;
43152;SDS011;28756;49.064;9.290;2023-04-28T04:38:39;3.63;;;2.50;;
43152;SDS011;28756;49.064;9.290;2023-04-28T04:41:05;3.47;;;2.20;;
43152;SDS011;28756;49.064;9.290;2023-04-28T04:43:30;2.88;;;2.10;;
43152;SDS011;28756;49.064;9.290;2023-04-28T04:45:56;2.38;;;2.17;;
43152;SDS011;28756;49.064;9.290;2023-04-28T04:48:22;2.72;;;2.20;;
43152;SDS011;28756;49.064;9.290;2023-04-28T04:50:48;2.38;;;2.00;;
43152;SDS011;28756;49.064;9.290;2023-04-28T04:53:13;2.60;;;2.40;;
43152;SDS011;28756;49.064;9.290;2023-04-28T04:55:39;4.28;;;2.80;;
43152;SDS011;28756;49.064;9.290;2023-04-28T04:58:05;2.90;;;2.17;;
43152;SDS011;28756;49.064;9.290;2023-04-28T05:00:31;3.22;;;2.70;;
43152;SDS011;28756;49.064;9.290;2023-04-28T05:02:57;4.05;;;2.40;;
43152;SDS011;28756;49.064;9.290;2023-04-28T05:05:23;4.05;;;2.40;;
43152;SDS011;28756;49.064;9.290;2023-04-28T05:07:49;3.13;;;2.00;;
43152;SDS011;28756;49.064;9.290;2023-04-28T05:10:15;2.58;;;2.03;;
43152;SDS011;28756;49.064;9.290;2023-04-28T05:12:41;4.32;;;2.63;;
43152;SDS011;28756;49.064;9.290;2023-04-28T05:15:08;2.70;;;2.28;;
43152;SDS011;28756;49.064;9.290;2023-04-28T05:17:35;2.72;;;2.15;;
43152;SDS011;28756;49.064;9.290;2023-04-28T05:20:00;3.47;;;2.30;;
43152;SDS011;28756;49.064;9.290;2023-04-28T05:22:27;2.20;;;2.00;;
43152;SDS011;28756;49.064;9.290;2023-04-28T05:24:52;3.10;;;2.22;;
43152;SDS011;28756;49.064;9.290;2023-04-28T05:27:18;2.88;;;2.50;;
43152;SDS011;28756;49.064;9.290;2023-04-28T05:29:44;3.83;;;2.78;;
43152;SDS011;28756;49.064;9.290;2023-04-28T05:32:10;4.82;;;2.60;;
43152;SDS011;28756;49.064;9.290;2023-04-28T05:34:36;3.63;;;2.40;;
43152;SDS011;28756;49.064;9.290;2023-04-28T05:37:02;3.70;;;2.30;;
43152;SDS011;28756;49.064;9.290;2023-04-28T05:39:27;2.97;;;2.58;;
43152;SDS011;28756;49.064;9.290;2023-04-28T05:41:53;2.78;;;2.50;;
43152;SDS011;28756;49.064;9.290;2023-04-28T05:44:19;3.05;;;2.60;;
43152;SDS011;28756;49.064;9.290;2023-04-28T05:46:45;2.70;;;2.33;;
43152;SDS011;28756;49.064;9.290;2023-04-28T05:49:10;4.00;;;2.60;;
43152;SDS011;28756;49.064;9.290;2023-04-28T05:51:36;2.40;;;2.20;;
43152;SDS011;28756;49.064;9.290;2023-04-28T05:54:02;4.55;;;2.95;;
43152;SDS011;28756;49.064;9.290;2023-04-28T05:56:28;5.13;;;2.88;;
43152;SDS011;28756;49.064;9.290;2023-04-28T05:58:54;4.20;;;2.80;;
43152;SDS011;28756;49.064;9.290;2023-04-28T06:01:21;4.53;;;2.60;;
43152;SDS011;28756;49.064;9.290;2023-04-28T06:03:46;4.28;;;2.80;;
43152;SDS011;28756;49.064;9.290;2023-04-28T06:06:12;4.15;;;2.60;;
43152;SDS011;28756;49.064;9.290;2023-04-28T06:08:38;3.35;;;2.55;;
43152;SDS011;28756;49.064;9.290;2023-04-28T06:11:04;4.47;;;3.50;;
43152;SDS011;28756;49.064;9.290;2023-04-28T06:13:31;4.75;;;3.13;;
43152;SDS011;28756;49.064;9.290;2023-04-28T06:15:57;5.05;;;2.83;;
43152;SDS011;28756;49.064;9.290;2023-04-28T06:18:23;4.03;;;2.80;;
43152;SDS011;28756;49.064;9.290;2023-04-28T06:20:49;3.40;;;2.50;;
43152;SDS011;28756;49.064;9.290;2023-04-28T06:23:15;3.67;;;2.38;;
43152;SDS011;28756;49.064;9.290;2023-04-28T06:25:40;3.47;;;2.40;;
43152;SDS011;28756;49.064;9.290;2023-04-28T06:28:06;3.10;;;2.50;;
43152;SDS011;28756;49.064;9.290;2023-04-28T06:30:32;4.88;;;2.53;;
43152;SDS011;28756;49.064;9.290;2023-04-28T06:32:59;2.92;;;2.47;;
43152;SDS011;28756;49.064;9.290;2023-04-28T06:35:25;3.70;;;2.60;;
43152;SDS011;28756;49.064;9.290;2023-04-28T06:37:52;3.30;;;2.63;;
43152;SDS011;28756;49.064;9.290;2023-04-28T06:40:18;3.72;;;2.67;;
43152;SDS011;28756;49.064;9.290;2023-04-28T06:42:44;3.33;;;2.90;;
43152;SDS011;28756;49.064;9.290;2023-04-28T06:45:09;3.78;;;2.75;;
43152;SDS011;28756;49.064;9.290;2023-04-28T06:47:35;3.80;;;2.80;;
43152;SDS011;28756;49.064;9.290;2023-04-28T06:50:01;4.75;;;3.30;;
43152;SDS011;28756;49.064;9.290;2023-04-28T06:52:27;3.90;;;2.78;;
43152;SDS011;28756;49.064;9.290;2023-04-28T06:54:54;3.28;;;2.63;;
43152;SDS011;28756;49.064;9.290;2023-04-28T06:57:20;4.15;;;2.92;;
43152;SDS011;28756;49.064;9.290;2023-04-28T06:59:46;4.30;;;3.70;;
43152;SDS011;28756;49.064;9.290;2023-04-28T07:02:12;5.90;;;3.47;;
43152;SDS011;28756;49.064;9.290;2023-04-28T07:04:38;4.65;;;3.03;;
43152;SDS011;28756;49.064;9.290;2023-04-28T07:07:03;3.35;;;2.80;;
43152;SDS011;28756;49.064;9.290;2023-04-28T07:09:34;3.50;;;2.88;;
43152;SDS011;28756;49.064;9.290;2023-04-28T07:12:00;4.45;;;2.80;;
43152;SDS011;28756;49.064;9.290;2023-04-28T07:14:28;2.97;;;2.63;;
43152;SDS011;28756;49.064;9.290;2023-04-28T07:16:54;3.50;;;2.53;;
43152;SDS011;28756;49.064;9.290;2023-04-28T07:19:20;3.22;;;2.92;;
43152;SDS011;28756;49.064;9.290;2023-04-28T07:21:45;3.50;;;2.60;;
43152;SDS011;28756;49.064;9.290;2023-04-28T07:24:11;4.43;;;2.63;;
43152;SDS011;28756;49.064;9.290;2023-04-28T07:26:37;2.65;;;2.22;;
43152;SDS011;28756;49.064;9.290;2023-04-28T07:29:03;4.10;;;2.47;;
43152;SDS011;28756;49.064;9.290;2023-04-28T07:31:28;4.15;;;2.70;;
43152;SDS011;28756;49.064;9.290;2023-04-28T07:33:54;2.78;;;2.30;;
43152;SDS011;28756;49.064;9.290;2023-04-28T07:36:20;3.97;;;2.20;;
43152;SDS011;28756;49.064;9.290;2023-04-28T07:38:46;3.72;;;2.60;;
43152;SDS011;28756;49.064;9.290;2023-04-28T07:41:12;2.53;;;1.90;;
43152;SDS011;28756;49.064;9.290;2023-04-28T07:43:38;5.35;;;2.30;;
43152;SDS011;28756;49.064;9.290;2023-04-28T07:46:05;22.42;;;2.88;;
43152;SDS011;28756;49.064;9.290;2023-04-28T07:48:32;3.97;;;2.30;;
43152;SDS011;28756;49.064;9.290;2023-04-28T07:50:59;3.22;;;2.22;;
43152;SDS011;28756;49.064;9.290;2023-04-28T07:53:25;3.60;;;2.45;;
43152;SDS011;28756;49.064;9.290;2023-04-28T07:55:51;2.83;;;2.33;;
43152;SDS011;28756;49.064;9.290;2023-04-28T07:58:18;4.38;;;2.72;;
43152;SDS011;28756;49.064;9.290;2023-04-28T08:00:45;4.85;;;2.80;;
43152;SDS011;28756;49.064;9.290;2023-04-28T08:03:12;5.63;;;3.67;;
43152;SDS011;28756;49.064;9.290;2023-04-28T08:05:38;3.70;;;2.88;;
43152;SDS011;28756;49.064;9.290;2023-04-28T08:08:05;3.40;;;2.55;;
43152;SDS011;28756;49.064;9.290;2023-04-28T08:10:30;4.03;;;3.10;;
43152;SDS011;28756;49.064;9.290;2023-04-28T08:12:56;3.00;;;2.50;;
43152;SDS011;28756;49.064;9.290;2023-04-28T08:15:23;2.72;;;2.35;;
43152;SDS011;28756;49.064;9.290;2023-04-28T08:17:49;3.72;;;2.60;;
43152;SDS011;28756;49.064;9.290;2023-04-28T08:20:16;3.53;;;2.63;;
43152;SDS011;28756;49.064;9.290;2023-04-28T08:22:43;3.15;;;2.28;;
43152;SDS011;28756;49.064;9.290;2023-04-28T08:25:12;2.92;;;2.40;;
43152;SDS011;28756;49.064;9.290;2023-04-28T08:27:38;3.17;;;2.40;;
43152;SDS011;28756;49.064;9.290;2023-04-28T08:30:05;4.13;;;2.75;;
43152;SDS011;28756;49.064;9.290;2023-04-28T08:32:33;3.20;;;2.90;;
43152;SDS011;28756;49.064;9.290;2023-04-28T08:34:59;3.75;;;3.35;;
43152;SDS011;28756;49.064;9.290;2023-04-28T08:37:28;3.58;;;2.70;;
43152;SDS011;28756;49.064;9.290;2023-04-28T08:39:53;3.25;;;2.80;;
43152;SDS011;28756;49.064;9.290;2023-04-28T08:42:29;3.22;;;2.50;;
43152;SDS011;28756;49.064;9.290;2023-04-28T08:44:57;3.85;;;2.70;;
43152;SDS011;28756;49.064;9.290;2023-04-28T08:47:25;2.83;;;2.17;;
43152;SDS011;28756;49.064;9.290;2023-04-28T08:50:03;2.40;;;2.20;;
43152;SDS011;28756;49.064;9.290;2023-04-28T08:52:33;2.95;;;2.10;;
43152;SDS011;28756;49.064;9.290;2023-04-28T08:55:01;2.28;;;2.05;;
43152;SDS011;28756;49.064;9.290;2023-04-28T09:00:13;3.05;;;2.20;;
43152;SDS011;28756;49.064;9.290;2023-04-28T09:02:39;2.88;;;2.40;;
43152;SDS011;28756;49.064;9.290;2023-04-28T09:05:09;3.05;;;2.30;;
43152;SDS011;28756;49.064;9.290;2023-04-28T09:07:38;3.22;;;2.40;;
43152;SDS011;28756;49.064;9.290;2023-04-28T09:10:14;4.30;;;2.58;;
43152;SDS011;28756;49.064;9.290;2023-04-28T09:12:51;3.28;;;2.67;;
43152;SDS011;28756;49.064;9.290;2023-04-28T09:15:35;3.40;;;2.50;;
43152;SDS011;28756;49.064;9.290;2023-04-28T09:18:06;3.60;;;2.83;;
43152;SDS011;28756;49.064;9.290;2023-04-28T09:20:32;2.90;;;2.35;;
43152;SDS011;28756;49.064;9.290;2023-04-28T09:23:13;4.00;;;2.40;;
43152;SDS011;28756;49.064;9.290;2023-04-28T09:25:40;3.38;;;2.72;;
43152;SDS011;28756;49.064;9.290;2023-04-28T09:28:28;3.42;;;2.85;;
43152;SDS011;28756;49.064;9.290;2023-04-28T09:30:55;2.60;;;2.40;;
43152;SDS011;28756;49.064;9.290;2023-04-28T09:33:21;2.60;;;2.38;;
43152;SDS011;28756;49.064;9.290;2023-04-28T09:35:47;3.08;;;2.78;;
43152;SDS011;28756;49.064;9.290;2023-04-28T09:38:13;4.45;;;2.70;;
43152;SDS011;28756;49.064;9.290;2023-04-28T09:43:25;4.30;;;2.25;;
43152;SDS011;28756;49.064;9.290;2023-04-28T09:45:53;2.85;;;2.20;;
43152;SDS011;28756;49.064;9.290;2023-04-28T09:48:33;3.17;;;2.47;;
43152;SDS011;28756;49.064;9.290;2023-04-28T09:51:02;2.83;;;2.20;;
43152;SDS011;28756;49.064;9.290;2023-04-28T09:53:30;2.80;;;2.50;;
43152;SDS011;28756;49.064;9.290;2023-04-28T09:55:57;2.25;;;2.05;;
43152;SDS011;28756;49.064;9.290;2023-04-28T09:58:27;3.67;;;2.60;;
43152;SDS011;28756;49.064;9.290;2023-04-28T10:00:57;2.05;;;1.85;;
43152;SDS011;28756;49.064;9.290;2023-04-28T10:03:25;2.05;;;1.90;;
43152;SDS011;28756;49.064;9.290;2023-04-28T10:05:55;2.88;;;2.10;;
43152;SDS011;28756;49.064;9.290;2023-04-28T10:08:22;2.42;;;2.22;;
43152;SDS011;28756;49.064;9.290;2023-04-28T10:10:49;3.03;;;2.67;;
43152;SDS011;28756;49.064;9.290;2023-04-28T10:13:18;3.42;;;2.60;;
43152;SDS011;28756;49.064;9.290;2023-04-28T10:15:46;3.20;;;2.20;;
43152;SDS011;28756;49.064;9.290;2023-04-28T10:18:12;2.50;;;2.30;;
43152;SDS011;28756;49.064;9.290;2023-04-28T10:20:44;3.65;;;2.78;;
43152;SDS011;28756;49.064;9.290;2023-04-28T10:26:14;3.10;;;2.45;;
43152;SDS011;28756;49.064;9.290;2023-04-28T10:28:46;3.03;;;2.60;;
43152;SDS011;28756;49.064;9.290;2023-04-28T10:31:17;3.47;;;2.80;;
43152;SDS011;28756;49.064;9.290;2023-04-28T10:33:45;3.25;;;2.75;;
43152;SDS011;28756;49.064;9.290;2023-04-28T10:39:14;3.10;;;2.80;;
43152;SDS011;28756;49.064;9.290;2023-04-28T10:41:40;4.07;;;2.53;;
43152;SDS011;28756;49.064;9.290;2023-04-28T10:47:00;2.78;;;2.50;;
43152;SDS011;28756;49.064;9.290;2023-04-28T10:58:29;1.88;;;1.50;;
43152;SDS011;28756;49.064;9.290;2023-04-28T11:00:39;1.67;;;1.30;;
43152;SDS011;28756;49.064;9.290;2023-04-28T11:03:09;1.42;;;1.33;;
43152;SDS011;28756;49.064;9.290;2023-04-28T11:06:18;1.30;;;1.20;;
43152;SDS011;28756;49.064;9.290;2023-04-28T11:11:36;1.45;;;1.23;;
43152;SDS011;28756;49.064;9.290;2023-04-28T11:19:38;2.08;;;1.20;;
43152;SDS011;28756;49.064;9.290;2023-04-28T11:22:15;1.45;;;1.20;;
43152;SDS011;28756;49.064;9.290;2023-04-28T11:24:54;2.50;;;1.40;;
43152;SDS011;28756;49.064;9.290;2023-04-28T11:27:30;1.92;;;1.20;;
43152;SDS011;28756;49.064;9.290;2023-04-28T11:29:57;2.35;;;1.50;;
43152;SDS011;28756;49.064;9.290;2023-04-28T11:32:27;1.75;;;1.20;;
43152;SDS011;28756;49.064;9.290;2023-04-28T11:34:56;2.13;;;1.30;;
43152;SDS011;28756;49.064;9.290;2023-04-28T11:37:22;3.00;;;1.50;;
43152;SDS011;28756;49.064;9.290;2023-04-28T11:39:48;1.20;;;1.00;;
43152;SDS011;28756;49.064;9.290;2023-04-28T11:42:14;1.60;;;1.30;;
43152;SDS011;28756;49.064;9.290;2023-04-28T11:44:41;1.95;;;1.50;;
43152;SDS011;28756;49.064;9.290;2023-04-28T11:47:14;1.52;;;1.35;;
43152;SDS011;28756;49.064;9.290;2023-04-28T11:49:43;3.47;;;1.33;;
43152;SDS011;28756;49.064;9.290;2023-04-28T11:52:10;1.42;;;1.15;;
43152;SDS011;28756;49.064;9.290;2023-04-28T11:54:37;1.42;;;1.30;;
43152;SDS011;28756;49.064;9.290;2023-04-28T11:57:06;1.55;;;1.27;;
43152;SDS011;28756;49.064;9.290;2023-04-28T11:59:45;1.50;;;1.40;;
43152;SDS011;28756;49.064;9.290;2023-04-28T12:02:11;1.70;;;1.30;;
43152;SDS011;28756;49.064;9.290;2023-04-28T12:04:38;1.17;;;1.08;;
43152;SDS011;28756;49.064;9.290;2023-04-28T12:07:07;1.50;;;1.00;;
43152;SDS011;28756;49.064;9.290;2023-04-28T12:09:39;1.23;;;1.10;;
43152;SDS011;28756;49.064;9.290;2023-04-28T12:12:28;1.13;;;1.02;;
43152;SDS011;28756;49.064;9.290;2023-04-28T12:14:56;1.58;;;1.00;;
43152;SDS011;28756;49.064;9.290;2023-04-28T12:17:34;1.23;;;0.93;;
43152;SDS011;28756;49.064;9.290;2023-04-28T12:20:08;0.85;;;0.85;;
43152;SDS011;28756;49.064;9.290;2023-04-28T12:22:59;2.75;;;1.10;;
43152;SDS011;28756;49.064;9.290;2023-04-28T12:25:24;1.38;;;0.82;;
43152;SDS011;28756;49.064;9.290;2023-04-28T12:28:03;2.63;;;0.98;;
43152;SDS011;28756;49.064;9.290;2023-04-28T12:30:35;1.63;;;0.70;;
43152;SDS011;28756;49.064;9.290;2023-04-28T12:33:04;1.30;;;0.85;;
43152;SDS011;28756;49.064;9.290;2023-04-28T12:35:48;1.15;;;0.90;;
43152;SDS011;28756;49.064;9.290;2023-04-28T12:38:14;1.90;;;0.68;;
43152;SDS011;28756;49.064;9.290;2023-04-28T12:40:41;1.50;;;0.70;;
43152;SDS011;28756;49.064;9.290;2023-04-28T12:43:06;1.45;;;0.80;;
43152;SDS011;28756;49.064;9.290;2023-04-28T12:45:32;0.88;;;0.60;;
43152;SDS011;28756;49.064;9.290;2023-04-28T12:47:58;1.30;;;0.90;;
43152;SDS011;28756;49.064;9.290;2023-04-28T12:50:24;0.93;;;0.50;;
43152;SDS011;28756;49.064;9.290;2023-04-28T12:52:51;0.73;;;0.30;;
43152;SDS011;28756;49.064;9.290;2023-04-28T12:55:17;2.15;;;0.73;;
43152;SDS011;28756;49.064;9.290;2023-04-28T12:57:43;1.02;;;0.60;;
43152;SDS011;28756;49.064;9.290;2023-04-28T13:00:09;0.50;;;0.40;;
43152;SDS011;28756;49.064;9.290;2023-04-28T13:02:40;0.47;;;0.40;;
43152;SDS011;28756;49.064;9.290;2023-04-28T13:05:06;0.82;;;0.32;;
43152;SDS011;28756;49.064;9.290;2023-04-28T13:07:33;0.57;;;0.40;;
43152;SDS011;28756;49.064;9.290;2023-04-28T13:09:59;0.82;;;0.40;;
43152;SDS011;28756;49.064;9.290;2023-04-28T13:12:24;0.52;;;0.40;;
43152;SDS011;28756;49.064;9.290;2023-04-28T13:14:50;0.55;;;0.30;;
43152;SDS011;28756;49.064;9.290;2023-04-28T13:17:16;0.75;;;0.65;;
43152;SDS011;28756;49.064;9.290;2023-04-28T13:19:42;0.60;;;0.50;;
43152;SDS011;28756;49.064;9.290;2023-04-28T13:22:08;0.93;;;0.60;;
43152;SDS011;28756;49.064;9.290;2023-04-28T13:24:34;0.98;;;0.50;;
43152;SDS011;28756;49.064;9.290;2023-04-28T13:27:00;1.63;;;0.50;;
43152;SDS011;28756;49.064;9.290;2023-04-28T13:29:33;0.80;;;0.50;;
43152;SDS011;28756;49.064;9.290;2023-04-28T13:32:00;0.95;;;0.50;;
43152;SDS011;28756;49.064;9.290;2023-04-28T13:34:26;1.20;;;0.50;;
43152;SDS011;28756;49.064;9.290;2023-04-28T13:36:52;0.40;;;0.40;;
43152;SDS011;28756;49.064;9.290;2023-04-28T13:39:19;1.23;;;0.52;;
43152;SDS011;28756;49.064;9.290;2023-04-28T13:41:46;0.80;;;0.50;;
43152;SDS011;28756;49.064;9.290;2023-04-28T13:44:13;1.38;;;0.70;;
43152;SDS011;28756;49.064;9.290;2023-04-28T13:46:40;1.33;;;0.65;;
43152;SDS011;28756;49.064;9.290;2023-04-28T13:49:06;1.05;;;0.65;;
43152;SDS011;28756;49.064;9.290;2023-04-28T13:51:34;1.10;;;0.55;;
43152;SDS011;28756;49.064;9.290;2023-04-28T13:54:00;1.30;;;0.60;;
43152;SDS011;28756;49.064;9.290;2023-04-28T13:56:32;0.80;;;0.50;;
43152;SDS011;28756;49.064;9.290;2023-04-28T13:59:00;0.73;;;0.70;;
43152;SDS011;28756;49.064;9.290;2023-04-28T14:01:26;3.42;;;0.80;;
43152;SDS011;28756;49.064;9.290;2023-04-28T14:03:52;2.35;;;0.70;;
43152;SDS011;28756;49.064;9.290;2023-04-28T14:06:17;0.77;;;0.70;;
43152;SDS011;28756;49.064;9.290;2023-04-28T14:08:43;0.80;;;0.70;;
43152;SDS011;28756;49.064;9.290;2023-04-28T14:11:09;0.60;;;0.60;;
43152;SDS011;28756;49.064;9.290;2023-04-28T14:13:36;1.30;;;0.70;;
43152;SDS011;28756;49.064;9.290;2023-04-28T14:16:01;1.50;;;1.00;;
43152;SDS011;28756;49.064;9.290;2023-04-28T14:18:27;1.02;;;0.80;;
43152;SDS011;28756;49.064;9.290;2023-04-28T14:20:53;3.03;;;0.90;;
43152;SDS011;28756;49.064;9.290;2023-04-28T14:23:20;1.33;;;0.90;;
43152;SDS011;28756;49.064;9.290;2023-04-28T14:25:48;1.10;;;0.90;;
43152;SDS011;28756;49.064;9.290;2023-04-28T14:28:19;0.93;;;0.70;;
43152;SDS011;28756;49.064;9.290;2023-04-28T14:30:45;0.70;;;0.60;;
43152;SDS011;28756;49.064;9.290;2023-04-28T14:33:11;1.05;;;0.85;;
43152;SDS011;28756;49.064;9.290;2023-04-28T14:35:37;1.50;;;0.70;;
43152;SDS011;28756;49.064;9.290;2023-04-28T14:38:03;0.82;;;0.80;;
43152;SDS011;28756;49.064;9.290;2023-04-28T14:40:29;2.63;;;1.00;;
43152;SDS011;28756;49.064;9.290;2023-04-28T14:42:55;1.20;;;0.70;;
43152;SDS011;28756;49.064;9.290;2023-04-28T14:45:21;1.20;;;1.00;;
43152;SDS011;28756;49.064;9.290;2023-04-28T14:47:47;1.13;;;0.80;;
43152;SDS011;28756;49.064;9.290;2023-04-28T14:50:13;1.00;;;0.70;;
43152;SDS011;28756;49.064;9.290;2023-04-28T14:52:39;1.00;;;0.75;;
43152;SDS011;28756;49.064;9.290;2023-04-28T14:55:05;0.75;;;0.60;;
43152;SDS011;28756;49.064;9.290;2023-04-28T14:57:31;0.88;;;0.80;;
43152;SDS011;28756;49.064;9.290;2023-04-28T14:59:59;0.80;;;0.80;;
43152;SDS011;28756;49.064;9.290;2023-04-28T15:02:25;0.88;;;0.70;;
43152;SDS011;28756;49.064;9.290;2023-04-28T15:04:53;0.70;;;0.60;;
43152;SDS011;28756;49.064;9.290;2023-04-28T15:07:20;1.05;;;0.70;;
43152;SDS011;28756;49.064;9.290;2023-04-28T15:09:47;0.52;;;0.52;;
43152;SDS011;28756;49.064;9.290;2023-04-28T15:12:13;0.95;;;0.70;;
43152;SDS011;28756;49.064;9.290;2023-04-28T15:14:39;1.20;;;0.80;;
43152;SDS011;28756;49.064;9.290;2023-04-28T15:17:05;1.05;;;0.90;;
43152;SDS011;28756;49.064;9.290;2023-04-28T15:19:31;1.23;;;0.80;;